sensor_id;sensor_type;location;lat;lon;timestamp;temperature;humidity
70089;HTU21D;57460;47.134;19.888;2023-03-24T00:01:39;11.39;57.58
70089;HTU21D;57460;47.134;19.888;2023-03-24T00:04:07;11.33;57.64
70089;HTU21D;57460;47.134;19.888;2023-03-24T00:06:36;11.25;57.00
70089;HTU21D;57460;47.134;19.888;2023-03-24T00:09:08;11.13;58.48
70089;HTU21D;57460;47.134;19.888;2023-03-24T00:11:34;10.98;56.64
70089;HTU21D;57460;47.134;19.888;2023-03-24T00:14:03;10.78;59.35
70089;HTU21D;57460;47.134;19.888;2023-03-24T00:16:31;10.65;58.71
70089;HTU21D;57460;47.134;19.888;2023-03-24T00:19:01;10.55;58.70
70089;HTU21D;57460;47.134;19.888;2023-03-24T00:21:27;10.51;58.65
70089;HTU21D;57460;47.134;19.888;2023-03-24T00:23:55;10.49;60.99
70089;HTU21D;57460;47.134;19.888;2023-03-24T00:26:33;10.54;58.93
70089;HTU21D;57460;47.134;19.888;2023-03-24T00:29:02;10.53;59.78
70089;HTU21D;57460;47.134;19.888;2023-03-24T00:31:31;10.53;60.74
70089;HTU21D;57460;47.134;19.888;2023-03-24T00:34:08;10.43;59.48
70089;HTU21D;57460;47.134;19.888;2023-03-24T00:36:40;10.34;59.49
70089;HTU21D;57460;47.134;19.888;2023-03-24T00:39:06;10.26;60.30
70089;HTU21D;57460;47.134;19.888;2023-03-24T00:41:35;10.35;59.55
70089;HTU21D;57460;47.134;19.888;2023-03-24T00:44:01;10.33;61.94
70089;HTU21D;57460;47.134;19.888;2023-03-24T00:46:40;10.37;60.60
70089;HTU21D;57460;47.134;19.888;2023-03-24T00:49:11;10.41;62.36
70089;HTU21D;57460;47.134;19.888;2023-03-24T00:51:41;10.45;60.57
70089;HTU21D;57460;47.134;19.888;2023-03-24T00:54:13;10.50;60.18
70089;HTU21D;57460;47.134;19.888;2023-03-24T00:56:46;10.51;59.55
70089;HTU21D;57460;47.134;19.888;2023-03-24T00:59:14;10.51;59.46
70089;HTU21D;57460;47.134;19.888;2023-03-24T01:01:40;10.44;60.11
70089;HTU21D;57460;47.134;19.888;2023-03-24T01:04:10;10.44;58.27
70089;HTU21D;57460;47.134;19.888;2023-03-24T01:06:39;10.41;57.97
70089;HTU21D;57460;47.134;19.888;2023-03-24T01:09:06;10.31;59.01
70089;HTU21D;57460;47.134;19.888;2023-03-24T01:11:38;10.25;58.44
70089;HTU21D;57460;47.134;19.888;2023-03-24T01:14:05;10.24;60.92
70089;HTU21D;57460;47.134;19.888;2023-03-24T01:16:30;10.24;59.32
70089;HTU21D;57460;47.134;19.888;2023-03-24T01:18:56;10.20;58.75
70089;HTU21D;57460;47.134;19.888;2023-03-24T01:21:23;10.12;62.90
70089;HTU21D;57460;47.134;19.888;2023-03-24T01:23:55;10.16;61.77
70089;HTU21D;57460;47.134;19.888;2023-03-24T01:26:22;10.28;60.79
70089;HTU21D;57460;47.134;19.888;2023-03-24T01:28:48;10.37;61.71
70089;HTU21D;57460;47.134;19.888;2023-03-24T01:31:14;10.49;60.12
70089;HTU21D;57460;47.134;19.888;2023-03-24T01:33:40;10.58;58.48
70089;HTU21D;57460;47.134;19.888;2023-03-24T01:36:07;10.58;61.03
70089;HTU21D;57460;47.134;19.888;2023-03-24T01:38:36;10.63;59.58
70089;HTU21D;57460;47.134;19.888;2023-03-24T01:41:04;10.63;59.28
70089;HTU21D;57460;47.134;19.888;2023-03-24T01:43:34;10.51;59.64
70089;HTU21D;57460;47.134;19.888;2023-03-24T01:48:53;10.34;59.86
70089;HTU21D;57460;47.134;19.888;2023-03-24T01:54:01;10.21;61.50
70089;HTU21D;57460;47.134;19.888;2023-03-24T01:56:32;10.22;60.06
70089;HTU21D;57460;47.134;19.888;2023-03-24T01:59:03;10.16;60.51
70089;HTU21D;57460;47.134;19.888;2023-03-24T02:01:30;10.11;60.42
70089;HTU21D;57460;47.134;19.888;2023-03-24T02:03:59;10.06;60.00
70089;HTU21D;57460;47.134;19.888;2023-03-24T02:06:29;9.97;60.96
70089;HTU21D;57460;47.134;19.888;2023-03-24T02:08:58;9.96;60.79
70089;HTU21D;57460;47.134;19.888;2023-03-24T02:11:31;9.96;60.61
70089;HTU21D;57460;47.134;19.888;2023-03-24T02:14:00;9.86;62.02
70089;HTU21D;57460;47.134;19.888;2023-03-24T02:16:40;9.77;60.22
70089;HTU21D;57460;47.134;19.888;2023-03-24T02:19:45;9.68;62.32
70089;HTU21D;57460;47.134;19.888;2023-03-24T02:25:26;9.76;60.28
70089;HTU21D;57460;47.134;19.888;2023-03-24T02:28:33;9.89;61.41
70089;HTU21D;57460;47.134;19.888;2023-03-24T02:31:25;10.09;61.94
70089;HTU21D;57460;47.134;19.888;2023-03-24T02:45:35;10.86;60.44
70089;HTU21D;57460;47.134;19.888;2023-03-24T02:48:18;10.87;59.25
70089;HTU21D;57460;47.134;19.888;2023-03-24T02:51:12;10.87;60.23
70089;HTU21D;57460;47.134;19.888;2023-03-24T02:59:06;10.89;59.67
70089;HTU21D;57460;47.134;19.888;2023-03-24T03:01:51;10.90;60.79
70089;HTU21D;57460;47.134;19.888;2023-03-24T03:04:31;10.87;60.71
70089;HTU21D;57460;47.134;19.888;2023-03-24T03:07:02;10.96;60.22
70089;HTU21D;57460;47.134;19.888;2023-03-24T03:09:40;10.99;59.79
70089;HTU21D;57460;47.134;19.888;2023-03-24T03:12:11;11.02;59.93
70089;HTU21D;57460;47.134;19.888;2023-03-24T03:14:43;11.08;59.41
70089;HTU21D;57460;47.134;19.888;2023-03-24T03:17:34;11.09;60.60
70089;HTU21D;57460;47.134;19.888;2023-03-24T03:20:15;11.14;59.81
70089;HTU21D;57460;47.134;19.888;2023-03-24T03:22:49;11.18;59.74
70089;HTU21D;57460;47.134;19.888;2023-03-24T03:25:23;11.25;59.99
70089;HTU21D;57460;47.134;19.888;2023-03-24T03:27:58;11.27;59.71
70089;HTU21D;57460;47.134;19.888;2023-03-24T03:30:34;11.30;60.26
70089;HTU21D;57460;47.134;19.888;2023-03-24T03:33:16;11.37;60.07
70089;HTU21D;57460;47.134;19.888;2023-03-24T03:36:13;11.39;60.41
70089;HTU21D;57460;47.134;19.888;2023-03-24T03:38:48;11.42;60.93
70089;HTU21D;57460;47.134;19.888;2023-03-24T03:41:19;11.48;58.36
70089;HTU21D;57460;47.134;19.888;2023-03-24T03:43:51;11.45;59.14
70089;HTU21D;57460;47.134;19.888;2023-03-24T03:46:21;11.39;58.87
70089;HTU21D;57460;47.134;19.888;2023-03-24T03:48:51;11.26;59.83
70089;HTU21D;57460;47.134;19.888;2023-03-24T03:51:20;11.20;59.53
70089;HTU21D;57460;47.134;19.888;2023-03-24T03:53:59;11.23;60.85
70089;HTU21D;57460;47.134;19.888;2023-03-24T03:56:30;11.19;59.76
70089;HTU21D;57460;47.134;19.888;2023-03-24T03:58:56;11.16;61.93
70089;HTU21D;57460;47.134;19.888;2023-03-24T04:01:26;11.20;60.84
70089;HTU21D;57460;47.134;19.888;2023-03-24T04:12:29;11.31;59.96
70089;HTU21D;57460;47.134;19.888;2023-03-24T04:18:05;11.34;59.38
70089;HTU21D;57460;47.134;19.888;2023-03-24T04:23:19;11.28;61.12
70089;HTU21D;57460;47.134;19.888;2023-03-24T04:26:13;11.23;60.80
70089;HTU21D;57460;47.134;19.888;2023-03-24T04:34:57;11.37;59.48
70089;HTU21D;57460;47.134;19.888;2023-03-24T04:37:36;11.33;60.18
70089;HTU21D;57460;47.134;19.888;2023-03-24T04:40:09;11.22;60.26
70089;HTU21D;57460;47.134;19.888;2023-03-24T04:42:42;11.17;60.93
70089;HTU21D;57460;47.134;19.888;2023-03-24T04:45:15;11.14;62.15
70089;HTU21D;57460;47.134;19.888;2023-03-24T04:48:03;11.14;61.72
70089;HTU21D;57460;47.134;19.888;2023-03-24T04:50:32;11.13;62.18
70089;HTU21D;57460;47.134;19.888;2023-03-24T04:53:01;11.13;60.13
70089;HTU21D;57460;47.134;19.888;2023-03-24T04:58:15;11.17;61.46
70089;HTU21D;57460;47.134;19.888;2023-03-24T05:00:42;11.24;61.68
70089;HTU21D;57460;47.134;19.888;2023-03-24T05:03:15;11.24;62.96
70089;HTU21D;57460;47.134;19.888;2023-03-24T05:05:47;11.31;62.15
70089;HTU21D;57460;47.134;19.888;2023-03-24T05:08:18;11.39;61.14
70089;HTU21D;57460;47.134;19.888;2023-03-24T05:10:45;11.43;60.86
70089;HTU21D;57460;47.134;19.888;2023-03-24T05:13:13;11.44;61.08
70089;HTU21D;57460;47.134;19.888;2023-03-24T05:15:42;11.49;61.12
70089;HTU21D;57460;47.134;19.888;2023-03-24T05:18:17;11.53;62.01
70089;HTU21D;57460;47.134;19.888;2023-03-24T05:20:45;11.60;62.20
70089;HTU21D;57460;47.134;19.888;2023-03-24T05:23:17;11.69;61.62
70089;HTU21D;57460;47.134;19.888;2023-03-24T05:25:47;11.79;62.19
70089;HTU21D;57460;47.134;19.888;2023-03-24T05:28:15;11.89;61.15
70089;HTU21D;57460;47.134;19.888;2023-03-24T05:30:44;12.05;60.25
70089;HTU21D;57460;47.134;19.888;2023-03-24T05:33:13;12.10;59.53
70089;HTU21D;57460;47.134;19.888;2023-03-24T05:35:38;12.12;60.07
70089;HTU21D;57460;47.134;19.888;2023-03-24T05:38:13;12.19;61.63
70089;HTU21D;57460;47.134;19.888;2023-03-24T05:40:47;12.35;59.89
70089;HTU21D;57460;47.134;19.888;2023-03-24T05:43:15;12.38;60.33
70089;HTU21D;57460;47.134;19.888;2023-03-24T05:45:48;12.51;59.79
70089;HTU21D;57460;47.134;19.888;2023-03-24T05:48:14;12.59;59.52
70089;HTU21D;57460;47.134;19.888;2023-03-24T05:50:48;12.67;60.27
70089;HTU21D;57460;47.134;19.888;2023-03-24T05:53:22;12.77;61.51
70089;HTU21D;57460;47.134;19.888;2023-03-24T05:55:47;12.89;60.41
70089;HTU21D;57460;47.134;19.888;2023-03-24T05:58:28;12.94;60.38
70089;HTU21D;57460;47.134;19.888;2023-03-24T06:00:53;12.99;60.92
70089;HTU21D;57460;47.134;19.888;2023-03-24T06:03:22;13.06;60.67
70089;HTU21D;57460;47.134;19.888;2023-03-24T06:05:48;13.19;60.20
70089;HTU21D;57460;47.134;19.888;2023-03-24T06:08:28;13.35;59.89
70089;HTU21D;57460;47.134;19.888;2023-03-24T06:11:00;13.45;60.39
70089;HTU21D;57460;47.134;19.888;2023-03-24T06:13:28;13.60;60.08
70089;HTU21D;57460;47.134;19.888;2023-03-24T06:15:53;13.73;59.08
70089;HTU21D;57460;47.134;19.888;2023-03-24T06:18:25;13.81;58.77
70089;HTU21D;57460;47.134;19.888;2023-03-24T06:20:53;13.91;58.44
70089;HTU21D;57460;47.134;19.888;2023-03-24T06:23:26;13.99;58.41
70089;HTU21D;57460;47.134;19.888;2023-03-24T06:25:56;14.09;58.12
70089;HTU21D;57460;47.134;19.888;2023-03-24T06:28:28;14.20;57.97
70089;HTU21D;57460;47.134;19.888;2023-03-24T06:31:06;14.17;57.39
70089;HTU21D;57460;47.134;19.888;2023-03-24T06:33:49;14.22;57.45
70089;HTU21D;57460;47.134;19.888;2023-03-24T06:36:16;14.25;57.49
70089;HTU21D;57460;47.134;19.888;2023-03-24T06:39:02;14.35;56.66
70089;HTU21D;57460;47.134;19.888;2023-03-24T07:05:55;15.73;53.76
70089;HTU21D;57460;47.134;19.888;2023-03-24T07:09:58;16.01;52.37
70089;HTU21D;57460;47.134;19.888;2023-03-24T07:12:59;16.06;52.21
70089;HTU21D;57460;47.134;19.888;2023-03-24T07:15:28;16.17;52.52
70089;HTU21D;57460;47.134;19.888;2023-03-24T07:17:57;16.34;52.51
70089;HTU21D;57460;47.134;19.888;2023-03-24T07:20:26;16.44;52.48
70089;HTU21D;57460;47.134;19.888;2023-03-24T07:22:57;16.63;52.86
70089;HTU21D;57460;47.134;19.888;2023-03-24T07:25:26;16.86;49.25
70089;HTU21D;57460;47.134;19.888;2023-03-24T07:27:58;17.14;49.40
70089;HTU21D;57460;47.134;19.888;2023-03-24T07:30:24;17.44;49.55
70089;HTU21D;57460;47.134;19.888;2023-03-24T07:32:57;17.49;48.15
70089;HTU21D;57460;47.134;19.888;2023-03-24T07:35:36;17.63;47.72
70089;HTU21D;57460;47.134;19.888;2023-03-24T09:23:40;23.20;35.88
70089;HTU21D;57460;47.134;19.888;2023-03-24T09:29:20;23.32;35.05
70089;HTU21D;57460;47.134;19.888;2023-03-24T09:32:18;23.25;33.39
70089;HTU21D;57460;47.134;19.888;2023-03-24T09:41:33;23.56;32.85
70089;HTU21D;57460;47.134;19.888;2023-03-24T09:59:16;24.46;31.25
70089;HTU21D;57460;47.134;19.888;2023-03-24T10:01:44;24.44;27.52
70089;HTU21D;57460;47.134;19.888;2023-03-24T10:12:47;24.68;26.28
70089;HTU21D;57460;47.134;19.888;2023-03-24T10:27:48;25.09;26.91
70089;HTU21D;57460;47.134;19.888;2023-03-24T10:30:44;25.19;24.99
70089;HTU21D;57460;47.134;19.888;2023-03-24T10:37:15;25.57;26.25
70089;HTU21D;57460;47.134;19.888;2023-03-24T10:43:11;25.84;23.01
70089;HTU21D;57460;47.134;19.888;2023-03-24T11:03:27;25.97;23.88
70089;HTU21D;57460;47.134;19.888;2023-03-24T11:06:22;25.86;23.54
70089;HTU21D;57460;47.134;19.888;2023-03-24T11:12:34;26.07;24.46
70089;HTU21D;57460;47.134;19.888;2023-03-24T11:18:50;26.71;23.86
70089;HTU21D;57460;47.134;19.888;2023-03-24T11:21:31;26.52;23.85
70089;HTU21D;57460;47.134;19.888;2023-03-24T11:32:46;26.50;24.61
70089;HTU21D;57460;47.134;19.888;2023-03-24T11:35:17;26.63;23.31
70089;HTU21D;57460;47.134;19.888;2023-03-24T12:17:17;26.91;22.36
70089;HTU21D;57460;47.134;19.888;2023-03-24T12:23:08;26.96;22.50
70089;HTU21D;57460;47.134;19.888;2023-03-24T12:49:56;27.13;20.06
70089;HTU21D;57460;47.134;19.888;2023-03-24T13:33:28;27.00;22.56
70089;HTU21D;57460;47.134;19.888;2023-03-24T13:39:27;27.24;21.67
70089;HTU21D;57460;47.134;19.888;2023-03-24T14:31:48;26.52;23.14
70089;HTU21D;57460;47.134;19.888;2023-03-24T15:08:29;25.86;24.36
70089;HTU21D;57460;47.134;19.888;2023-03-24T15:11:01;25.72;24.20
70089;HTU21D;57460;47.134;19.888;2023-03-24T18:47:32;18.29;39.69
70089;HTU21D;57460;47.134;19.888;2023-03-24T18:54:05;18.19;40.10
70089;HTU21D;57460;47.134;19.888;2023-03-24T19:01:13;17.97;42.41
70089;HTU21D;57460;47.134;19.888;2023-03-24T19:04:09;17.93;42.09
70089;HTU21D;57460;47.134;19.888;2023-03-24T19:07:36;17.96;40.84
70089;HTU21D;57460;47.134;19.888;2023-03-24T19:13:55;17.74;40.65
70089;HTU21D;57460;47.134;19.888;2023-03-24T19:16:35;17.65;44.22
70089;HTU21D;57460;47.134;19.888;2023-03-24T19:19:05;17.47;40.99
70089;HTU21D;57460;47.134;19.888;2023-03-24T19:21:46;17.35;46.00
70089;HTU21D;57460;47.134;19.888;2023-03-24T19:24:27;17.28;44.79
70089;HTU21D;57460;47.134;19.888;2023-03-24T19:27:07;17.28;42.31
70089;HTU21D;57460;47.134;19.888;2023-03-24T19:30:03;17.25;45.33
70089;HTU21D;57460;47.134;19.888;2023-03-24T19:32:47;17.35;40.53
70089;HTU21D;57460;47.134;19.888;2023-03-24T19:35:41;17.36;43.62
70089;HTU21D;57460;47.134;19.888;2023-03-24T19:38:18;17.39;41.81
70089;HTU21D;57460;47.134;19.888;2023-03-24T19:41:15;17.45;42.70
70089;HTU21D;57460;47.134;19.888;2023-03-24T19:43:51;17.50;44.01
70089;HTU21D;57460;47.134;19.888;2023-03-24T19:46:20;17.48;44.26
70089;HTU21D;57460;47.134;19.888;2023-03-24T19:48:47;17.58;41.33
70089;HTU21D;57460;47.134;19.888;2023-03-24T19:51:19;17.67;42.49
70089;HTU21D;57460;47.134;19.888;2023-03-24T19:53:49;17.76;42.42
70089;HTU21D;57460;47.134;19.888;2023-03-24T19:56:16;17.92;40.02
70089;HTU21D;57460;47.134;19.888;2023-03-24T19:58:47;17.98;42.55
70089;HTU21D;57460;47.134;19.888;2023-03-24T20:01:19;18.05;43.08
70089;HTU21D;57460;47.134;19.888;2023-03-24T20:03:49;18.13;41.65
70089;HTU21D;57460;47.134;19.888;2023-03-24T20:06:21;18.23;42.03
70089;HTU21D;57460;47.134;19.888;2023-03-24T20:08:56;18.29;41.90
70089;HTU21D;57460;47.134;19.888;2023-03-24T20:11:23;18.32;41.05
70089;HTU21D;57460;47.134;19.888;2023-03-24T20:13:52;18.33;42.42
70089;HTU21D;57460;47.134;19.888;2023-03-24T20:16:19;18.30;42.32
70089;HTU21D;57460;47.134;19.888;2023-03-24T20:18:47;18.28;42.07
70089;HTU21D;57460;47.134;19.888;2023-03-24T20:21:20;18.35;40.52
70089;HTU21D;57460;47.134;19.888;2023-03-24T20:23:54;18.34;40.67
70089;HTU21D;57460;47.134;19.888;2023-03-24T20:26:24;18.33;41.40
70089;HTU21D;57460;47.134;19.888;2023-03-24T20:28:54;18.28;40.88
70089;HTU21D;57460;47.134;19.888;2023-03-24T20:31:24;18.23;41.55
70089;HTU21D;57460;47.134;19.888;2023-03-24T20:33:54;18.20;40.94
70089;HTU21D;57460;47.134;19.888;2023-03-24T20:36:26;18.24;41.56
70089;HTU21D;57460;47.134;19.888;2023-03-24T20:38:53;18.19;40.92
70089;HTU21D;57460;47.134;19.888;2023-03-24T20:41:27;18.13;42.08
70089;HTU21D;57460;47.134;19.888;2023-03-24T20:43:56;18.09;42.26
70089;HTU21D;57460;47.134;19.888;2023-03-24T20:46:25;18.06;42.19
70089;HTU21D;57460;47.134;19.888;2023-03-24T20:48:54;17.99;42.89
70089;HTU21D;57460;47.134;19.888;2023-03-24T20:51:24;17.95;42.77
70089;HTU21D;57460;47.134;19.888;2023-03-24T20:53:53;17.89;41.57
70089;HTU21D;57460;47.134;19.888;2023-03-24T20:56:20;17.80;43.11
70089;HTU21D;57460;47.134;19.888;2023-03-24T20:58:53;17.81;42.29
70089;HTU21D;57460;47.134;19.888;2023-03-24T21:01:22;17.74;43.34
70089;HTU21D;57460;47.134;19.888;2023-03-24T21:04:03;17.74;43.00
70089;HTU21D;57460;47.134;19.888;2023-03-24T21:06:30;17.67;43.58
70089;HTU21D;57460;47.134;19.888;2023-03-24T21:08:57;17.60;42.98
70089;HTU21D;57460;47.134;19.888;2023-03-24T21:11:29;17.45;43.03
70089;HTU21D;57460;47.134;19.888;2023-03-24T21:13:57;17.37;43.82
70089;HTU21D;57460;47.134;19.888;2023-03-24T21:16:27;17.26;45.38
70089;HTU21D;57460;47.134;19.888;2023-03-24T21:18:54;17.25;44.57
70089;HTU21D;57460;47.134;19.888;2023-03-24T21:21:22;17.25;44.47
70089;HTU21D;57460;47.134;19.888;2023-03-24T21:23:51;17.22;44.94
70089;HTU21D;57460;47.134;19.888;2023-03-24T21:26:20;17.22;44.64
70089;HTU21D;57460;47.134;19.888;2023-03-24T21:28:50;17.24;43.08
70089;HTU21D;57460;47.134;19.888;2023-03-24T21:31:25;17.17;43.39
70089;HTU21D;57460;47.134;19.888;2023-03-24T21:33:56;17.19;42.96
70089;HTU21D;57460;47.134;19.888;2023-03-24T21:36:24;17.23;42.72
70089;HTU21D;57460;47.134;19.888;2023-03-24T21:38:57;17.10;45.08
70089;HTU21D;57460;47.134;19.888;2023-03-24T21:41:30;17.06;44.97
70089;HTU21D;57460;47.134;19.888;2023-03-24T21:43:59;16.99;45.04
70089;HTU21D;57460;47.134;19.888;2023-03-24T21:46:28;17.17;43.33
70089;HTU21D;57460;47.134;19.888;2023-03-24T21:48:57;17.04;45.45
70089;HTU21D;57460;47.134;19.888;2023-03-24T21:51:36;17.00;44.03
70089;HTU21D;57460;47.134;19.888;2023-03-24T21:54:04;16.92;46.44
70089;HTU21D;57460;47.134;19.888;2023-03-24T21:56:35;16.94;45.20
70089;HTU21D;57460;47.134;19.888;2023-03-24T21:59:02;16.89;46.51
70089;HTU21D;57460;47.134;19.888;2023-03-24T22:01:31;16.86;45.94
70089;HTU21D;57460;47.134;19.888;2023-03-24T22:04:00;16.78;46.99
70089;HTU21D;57460;47.134;19.888;2023-03-24T22:06:26;16.75;46.56
70089;HTU21D;57460;47.134;19.888;2023-03-24T22:08:53;16.76;46.77
70089;HTU21D;57460;47.134;19.888;2023-03-24T22:11:22;16.71;46.98
70089;HTU21D;57460;47.134;19.888;2023-03-24T22:13:49;16.66;47.41
70089;HTU21D;57460;47.134;19.888;2023-03-24T22:16:18;16.67;45.11
70089;HTU21D;57460;47.134;19.888;2023-03-24T22:18:44;16.69;46.98
70089;HTU21D;57460;47.134;19.888;2023-03-24T22:21:12;16.72;46.61
70089;HTU21D;57460;47.134;19.888;2023-03-24T22:23:41;16.76;46.15
70089;HTU21D;57460;47.134;19.888;2023-03-24T22:26:10;16.85;44.97
70089;HTU21D;57460;47.134;19.888;2023-03-24T22:28:42;16.85;47.28
70089;HTU21D;57460;47.134;19.888;2023-03-24T22:31:16;16.88;46.13
70089;HTU21D;57460;47.134;19.888;2023-03-24T22:33:43;16.94;45.86
70089;HTU21D;57460;47.134;19.888;2023-03-24T22:36:12;16.96;45.48
70089;HTU21D;57460;47.134;19.888;2023-03-24T22:38:41;16.90;47.79
70089;HTU21D;57460;47.134;19.888;2023-03-24T22:41:12;16.92;46.95
70089;HTU21D;57460;47.134;19.888;2023-03-24T22:43:41;16.94;47.76
70089;HTU21D;57460;47.134;19.888;2023-03-24T22:46:10;16.93;45.90
70089;HTU21D;57460;47.134;19.888;2023-03-24T22:48:41;16.89;46.99
70089;HTU21D;57460;47.134;19.888;2023-03-24T22:51:15;16.84;47.15
70089;HTU21D;57460;47.134;19.888;2023-03-24T22:53:47;16.89;46.68
70089;HTU21D;57460;47.134;19.888;2023-03-24T22:56:14;16.73;48.24
70089;HTU21D;57460;47.134;19.888;2023-03-24T22:58:45;16.73;47.28
70089;HTU21D;57460;47.134;19.888;2023-03-24T23:01:19;16.72;47.18
70089;HTU21D;57460;47.134;19.888;2023-03-24T23:03:51;16.67;47.51
70089;HTU21D;57460;47.134;19.888;2023-03-24T23:06:17;16.58;47.69
70089;HTU21D;57460;47.134;19.888;2023-03-24T23:08:46;16.52;49.07
70089;HTU21D;57460;47.134;19.888;2023-03-24T23:11:14;16.64;47.08
70089;HTU21D;57460;47.134;19.888;2023-03-24T23:13:41;16.41;47.65
70089;HTU21D;57460;47.134;19.888;2023-03-24T23:16:09;16.33;47.93
70089;HTU21D;57460;47.134;19.888;2023-03-24T23:18:38;16.20;48.63
70089;HTU21D;57460;47.134;19.888;2023-03-24T23:21:10;16.10;50.53
70089;HTU21D;57460;47.134;19.888;2023-03-24T23:23:41;16.14;48.26
70089;HTU21D;57460;47.134;19.888;2023-03-24T23:26:11;15.99;49.15
70089;HTU21D;57460;47.134;19.888;2023-03-24T23:28:42;15.87;49.22
70089;HTU21D;57460;47.134;19.888;2023-03-24T23:31:10;15.85;50.40
70089;HTU21D;57460;47.134;19.888;2023-03-24T23:33:41;15.82;50.71
70089;HTU21D;57460;47.134;19.888;2023-03-24T23:36:09;15.81;51.39
70089;HTU21D;57460;47.134;19.888;2023-03-24T23:38:40;15.76;49.81
70089;HTU21D;57460;47.134;19.888;2023-03-24T23:41:07;15.71;49.44
70089;HTU21D;57460;47.134;19.888;2023-03-24T23:43:36;15.73;49.94
70089;HTU21D;57460;47.134;19.888;2023-03-24T23:46:02;15.59;50.11
70089;HTU21D;57460;47.134;19.888;2023-03-24T23:48:30;15.42;52.56
70089;HTU21D;57460;47.134;19.888;2023-03-24T23:51:02;15.36;51.63
70089;HTU21D;57460;47.134;19.888;2023-03-24T23:53:33;15.25;53.07
70089;HTU21D;57460;47.134;19.888;2023-03-24T23:56:03;15.24;50.57
70089;HTU21D;57460;47.134;19.888;2023-03-24T23:58:36;15.19;52.27
